GLD1287 SBGP-SBDN
Flight info
| Callsign | GLD1287 |
|---|---|
| Flight time | 1h 2m |
| Altitude | 21000 |
| Route | NENO1A ANSOK DCT TOPUX DCT DN004 R12 |
| Aircraft | C25C/M-SDFGIRY/S |
Departure
| Time | 2026-05-03 20:49 |
|---|---|
| Airport | EMBRAER - Unidade Gavião Peixoto Airport (SBGP) |
Arrival
| Time | 2026-05-03 21:52 |
|---|---|
| Airport | Presidente Prudente Airport (SBDN) |
| Time | Latitude | Longitude | Altitude | Speed | Heading |
|---|---|---|---|---|---|
| 2026-05-03 20:43 | -21.75624 | -48.40339 | 1981 ft | 16 kts | 2° |
| 2026-05-03 20:43 | -21.75495 | -48.40344 | 1979 ft | 21 kts | 356° |
| 2026-05-03 20:43 | -21.75381 | -48.40347 | 1980 ft | 15 kts | 359° |
| 2026-05-03 20:43 | -21.75273 | -48.40348 | 1979 ft | 16 kts | 359° |
| 2026-05-03 20:44 | -21.75171 | -48.40350 | 1980 ft | 7 kts | 349° |
| 2026-05-03 20:44 | -21.75143 | -48.40385 | 1979 ft | 10 kts | 280° |
| 2026-05-03 20:44 | -21.75142 | -48.40436 | 1978 ft | 0 kts | 268° |
| 2026-05-03 20:46 | -21.75143 | -48.40457 | 1980 ft | 7 kts | 266° |
| 2026-05-03 20:46 | -21.75150 | -48.40522 | 1978 ft | 7 kts | 252° |
| 2026-05-03 20:47 | -21.75168 | -48.40534 | 1978 ft | 7 kts | 195° |
| 2026-05-03 20:47 | -21.75202 | -48.40539 | 1979 ft | 0 kts | 174° |
| 2026-05-03 20:48 | -21.75357 | -48.40536 | 1981 ft | 53 kts | 178° |
| 2026-05-03 20:49 | -21.75913 | -48.40524 | 1982 ft | 104 kts | 179° |
| 2026-05-03 20:49 | -21.76701 | -48.40513 | 2225 ft | 119 kts | 178° |
| 2026-05-03 20:49 | -21.77635 | -48.40511 | 2506 ft | 146 kts | 179° |
| 2026-05-03 20:49 | -21.78591 | -48.40508 | 3315 ft | 134 kts | 175° |
| 2026-05-03 20:50 | -21.79541 | -48.40512 | 3981 ft | 137 kts | 176° |
| 2026-05-03 20:50 | -21.80494 | -48.40517 | 4588 ft | 141 kts | 177° |
| 2026-05-03 20:50 | -21.81512 | -48.40520 | 5211 ft | 146 kts | 177° |
| 2026-05-03 20:50 | -21.82529 | -48.40525 | 5839 ft | 150 kts | 177° |
| 2026-05-03 20:51 | -21.83585 | -48.40526 | 6477 ft | 154 kts | 176° |
| 2026-05-03 20:51 | -21.84668 | -48.40525 | 7059 ft | 157 kts | 178° |
| 2026-05-03 20:51 | -21.85761 | -48.40526 | 7668 ft | 158 kts | 178° |
| 2026-05-03 20:51 | -21.86861 | -48.40527 | 8282 ft | 159 kts | 178° |
| 2026-05-03 20:52 | -21.87967 | -48.40527 | 8911 ft | 160 kts | 179° |
| 2026-05-03 20:52 | -21.89086 | -48.40529 | 9532 ft | 161 kts | 179° |
| 2026-05-03 20:52 | -21.90210 | -48.40531 | 10136 ft | 162 kts | 180° |
| 2026-05-03 20:52 | -21.91357 | -48.40533 | 10684 ft | 164 kts | 181° |
| 2026-05-03 20:53 | -21.92503 | -48.40534 | 11206 ft | 166 kts | 181° |
| 2026-05-03 20:53 | -21.93661 | -48.40536 | 11720 ft | 167 kts | 182° |
| 2026-05-03 20:53 | -21.94816 | -48.40541 | 12220 ft | 169 kts | 184° |
| 2026-05-03 20:53 | -21.95999 | -48.40547 | 12720 ft | 171 kts | 184° |
| 2026-05-03 20:54 | -21.97196 | -48.40555 | 13188 ft | 173 kts | 184° |
| 2026-05-03 20:54 | -21.99633 | -48.40572 | 14100 ft | 176 kts | 184° |
| 2026-05-03 20:54 | -22.00859 | -48.40583 | 14534 ft | 176 kts | 185° |
| 2026-05-03 20:55 | -22.02087 | -48.40593 | 14954 ft | 177 kts | 185° |
| 2026-05-03 20:55 | -22.03316 | -48.40605 | 15398 ft | 177 kts | 185° |
| 2026-05-03 20:55 | -22.04545 | -48.40616 | 15844 ft | 177 kts | 185° |
| 2026-05-03 20:55 | -22.05777 | -48.40628 | 16252 ft | 177 kts | 186° |
| 2026-05-03 20:56 | -22.07007 | -48.40641 | 16672 ft | 177 kts | 186° |
| 2026-05-03 20:56 | -22.08229 | -48.40729 | 17080 ft | 173 kts | 201° |
| 2026-05-03 20:56 | -22.09094 | -48.41521 | 17498 ft | 166 kts | 246° |
| 2026-05-03 20:56 | -22.09118 | -48.42744 | 17908 ft | 171 kts | 286° |
| 2026-05-03 20:57 | -22.08541 | -48.43894 | 18286 ft | 176 kts | 294° |
| 2026-05-03 20:57 | -22.07949 | -48.45044 | 18666 ft | 175 kts | 294° |
| 2026-05-03 20:57 | -22.07275 | -48.46143 | 19033 ft | 179 kts | 304° |
| 2026-05-03 20:57 | -22.06334 | -48.47044 | 19398 ft | 183 kts | 316° |
| 2026-05-03 20:58 | -22.05311 | -48.47865 | 19753 ft | 183 kts | 315° |
| 2026-05-03 20:58 | -22.04297 | -48.48699 | 20138 ft | 183 kts | 314° |
| 2026-05-03 20:58 | -22.03283 | -48.49531 | 20525 ft | 183 kts | 315° |
| 2026-05-03 20:58 | -22.02269 | -48.50364 | 20899 ft | 183 kts | 314° |
| 2026-05-03 20:59 | -22.01235 | -48.51217 | 21082 ft | 195 kts | 314° |
| 2026-05-03 20:59 | -22.00115 | -48.52159 | 21086 ft | 213 kts | 315° |
| 2026-05-03 20:59 | -21.98916 | -48.53186 | 21096 ft | 226 kts | 315° |
| 2026-05-03 20:59 | -21.97657 | -48.54274 | 21093 ft | 237 kts | 315° |
| 2026-05-03 21:00 | -21.96353 | -48.55413 | 21096 ft | 245 kts | 314° |
| 2026-05-03 21:00 | -21.95935 | -48.55802 | 21091 ft | 246 kts | 312° |
| 2026-05-03 21:00 | -21.94091 | -48.58174 | 21088 ft | 248 kts | 296° |
| 2026-05-03 21:00 | -21.93322 | -48.59841 | 21091 ft | 250 kts | 290° |
| 2026-05-03 21:01 | -21.92571 | -48.61541 | 21091 ft | 253 kts | 292° |
| 2026-05-03 21:01 | -21.91747 | -48.63230 | 21092 ft | 256 kts | 294° |
| 2026-05-03 21:01 | -21.90915 | -48.64928 | 21088 ft | 257 kts | 293° |
| 2026-05-03 21:01 | -21.90089 | -48.66638 | 21089 ft | 258 kts | 293° |
| 2026-05-03 21:02 | -21.89260 | -48.68354 | 21087 ft | 259 kts | 293° |
| 2026-05-03 21:02 | -21.88428 | -48.70076 | 21085 ft | 260 kts | 293° |
| 2026-05-03 21:02 | -21.87591 | -48.71801 | 21086 ft | 260 kts | 293° |
| 2026-05-03 21:02 | -21.86849 | -48.73566 | 21080 ft | 257 kts | 285° |
| 2026-05-03 21:03 | -21.86560 | -48.74800 | 21077 ft | 256 kts | 278° |
| 2026-05-03 21:03 | -21.86416 | -48.77338 | 21082 ft | 254 kts | 265° |
| 2026-05-03 21:03 | -21.86569 | -48.78586 | 21082 ft | 254 kts | 258° |
| 2026-05-03 21:03 | -21.87083 | -48.80405 | 21083 ft | 255 kts | 249° |
| 2026-05-03 21:04 | -21.87918 | -48.82089 | 21083 ft | 256 kts | 238° |
| 2026-05-03 21:04 | -21.89052 | -48.83580 | 21080 ft | 259 kts | 228° |
| 2026-05-03 21:04 | -21.90452 | -48.84815 | 21086 ft | 262 kts | 218° |
| 2026-05-03 21:04 | -21.92031 | -48.85812 | 21083 ft | 264 kts | 214° |
| 2026-05-03 21:05 | -21.93605 | -48.86826 | 21082 ft | 263 kts | 216° |
| 2026-05-03 21:05 | -21.95179 | -48.87840 | 21084 ft | 264 kts | 215° |
| 2026-05-03 21:05 | -21.96758 | -48.88842 | 21085 ft | 264 kts | 215° |
| 2026-05-03 21:05 | -21.98336 | -48.89847 | 21085 ft | 264 kts | 215° |
| 2026-05-03 21:06 | -21.99916 | -48.90855 | 21082 ft | 264 kts | 215° |
| 2026-05-03 21:06 | -22.01495 | -48.91865 | 21081 ft | 264 kts | 215° |
| 2026-05-03 21:06 | -22.03076 | -48.92875 | 21094 ft | 264 kts | 215° |
| 2026-05-03 21:06 | -22.04661 | -48.93884 | 21098 ft | 264 kts | 215° |
| 2026-05-03 21:07 | -22.06239 | -48.94894 | 21102 ft | 264 kts | 215° |
| 2026-05-03 21:07 | -22.07821 | -48.95905 | 21104 ft | 264 kts | 215° |
| 2026-05-03 21:07 | -22.09400 | -48.96914 | 21109 ft | 264 kts | 215° |
| 2026-05-03 21:07 | -22.10981 | -48.97925 | 21109 ft | 264 kts | 215° |
| 2026-05-03 21:08 | -22.12560 | -48.98936 | 21118 ft | 264 kts | 215° |
| 2026-05-03 21:08 | -22.14141 | -48.99946 | 21125 ft | 264 kts | 216° |
| 2026-05-03 21:08 | -22.15721 | -49.00958 | 21122 ft | 264 kts | 215° |
| 2026-05-03 21:08 | -22.17301 | -49.01969 | 21129 ft | 264 kts | 216° |
| 2026-05-03 21:09 | -22.18883 | -49.02981 | 21127 ft | 264 kts | 216° |
| 2026-05-03 21:09 | -22.20463 | -49.03994 | 21127 ft | 264 kts | 216° |
| 2026-05-03 21:09 | -22.22044 | -49.05007 | 21136 ft | 264 kts | 216° |
| 2026-05-03 21:09 | -22.23625 | -49.06018 | 21137 ft | 264 kts | 216° |
| 2026-05-03 21:10 | -22.25206 | -49.07033 | 21137 ft | 264 kts | 216° |
| 2026-05-03 21:10 | -22.26785 | -49.08043 | 21140 ft | 264 kts | 216° |
| 2026-05-03 21:10 | -22.28367 | -49.09059 | 21137 ft | 264 kts | 216° |
| 2026-05-03 21:10 | -22.29946 | -49.10072 | 21143 ft | 264 kts | 216° |
| 2026-05-03 21:11 | -22.31503 | -49.11070 | 21140 ft | 264 kts | 216° |
| 2026-05-03 21:11 | -22.33081 | -49.12084 | 21137 ft | 264 kts | 216° |
| 2026-05-03 21:11 | -22.34655 | -49.13100 | 21140 ft | 263 kts | 217° |
| 2026-05-03 21:11 | -22.36055 | -49.14331 | 21139 ft | 258 kts | 229° |
| 2026-05-03 21:12 | -22.37198 | -49.15805 | 21134 ft | 255 kts | 238° |
| 2026-05-03 21:12 | -22.38055 | -49.17469 | 21137 ft | 253 kts | 248° |
| 2026-05-03 21:12 | -22.38609 | -49.19268 | 21132 ft | 252 kts | 257° |
| 2026-05-03 21:12 | -22.38843 | -49.21139 | 21133 ft | 252 kts | 266° |
| 2026-05-03 21:13 | -22.38760 | -49.23035 | 21129 ft | 253 kts | 275° |
| 2026-05-03 21:13 | -22.38576 | -49.24924 | 21123 ft | 253 kts | 273° |
| 2026-05-03 21:13 | -22.38419 | -49.26814 | 21123 ft | 253 kts | 273° |
| 2026-05-03 21:13 | -22.38245 | -49.28704 | 21120 ft | 253 kts | 274° |
| 2026-05-03 21:14 | -22.38071 | -49.30595 | 21116 ft | 253 kts | 274° |
| 2026-05-03 21:14 | -22.37897 | -49.32486 | 21114 ft | 253 kts | 274° |
| 2026-05-03 21:14 | -22.37725 | -49.34378 | 21110 ft | 253 kts | 274° |
| 2026-05-03 21:14 | -22.37552 | -49.36272 | 21106 ft | 253 kts | 274° |
| 2026-05-03 21:15 | -22.37378 | -49.38166 | 21104 ft | 253 kts | 274° |
| 2026-05-03 21:15 | -22.37205 | -49.40060 | 21102 ft | 254 kts | 274° |
| 2026-05-03 21:15 | -22.37029 | -49.41957 | 21094 ft | 254 kts | 274° |
| 2026-05-03 21:15 | -22.36855 | -49.43853 | 21092 ft | 254 kts | 274° |
| 2026-05-03 21:16 | -22.36680 | -49.45751 | 21092 ft | 254 kts | 274° |
| 2026-05-03 21:16 | -22.36506 | -49.47647 | 21095 ft | 254 kts | 274° |
| 2026-05-03 21:16 | -22.36329 | -49.49542 | 21093 ft | 253 kts | 274° |
| 2026-05-03 21:16 | -22.36155 | -49.51437 | 21091 ft | 254 kts | 274° |
| 2026-05-03 21:17 | -22.35979 | -49.53332 | 21087 ft | 254 kts | 274° |
| 2026-05-03 21:17 | -22.35863 | -49.54588 | 21085 ft | 254 kts | 274° |
| 2026-05-03 21:17 | -22.35627 | -49.57123 | 21089 ft | 254 kts | 274° |
| 2026-05-03 21:17 | -22.35451 | -49.59019 | 21090 ft | 254 kts | 274° |
| 2026-05-03 21:18 | -22.35275 | -49.60914 | 21093 ft | 254 kts | 274° |
| 2026-05-03 21:18 | -22.35098 | -49.62808 | 21090 ft | 253 kts | 274° |
| 2026-05-03 21:18 | -22.34921 | -49.64701 | 21099 ft | 253 kts | 274° |
| 2026-05-03 21:18 | -22.34745 | -49.66596 | 21100 ft | 254 kts | 274° |
| 2026-05-03 21:19 | -22.34567 | -49.68490 | 21099 ft | 254 kts | 274° |
| 2026-05-03 21:19 | -22.34389 | -49.70387 | 21105 ft | 254 kts | 274° |
| 2026-05-03 21:19 | -22.34212 | -49.72286 | 21108 ft | 254 kts | 274° |
| 2026-05-03 21:19 | -22.34033 | -49.74183 | 21115 ft | 254 kts | 274° |
| 2026-05-03 21:20 | -22.33855 | -49.76078 | 21114 ft | 254 kts | 274° |
| 2026-05-03 21:20 | -22.33675 | -49.77972 | 21107 ft | 254 kts | 274° |
| 2026-05-03 21:20 | -22.33498 | -49.79869 | 21120 ft | 254 kts | 274° |
| 2026-05-03 21:20 | -22.33318 | -49.81767 | 21122 ft | 254 kts | 274° |
| 2026-05-03 21:21 | -22.33139 | -49.83662 | 21123 ft | 254 kts | 274° |
| 2026-05-03 21:21 | -22.32960 | -49.85560 | 21126 ft | 254 kts | 274° |
| 2026-05-03 21:21 | -22.32778 | -49.87460 | 21128 ft | 254 kts | 274° |
| 2026-05-03 21:21 | -22.32600 | -49.89357 | 21130 ft | 254 kts | 274° |
| 2026-05-03 21:22 | -22.32418 | -49.91256 | 21130 ft | 254 kts | 274° |
| 2026-05-03 21:22 | -22.32239 | -49.93158 | 21131 ft | 254 kts | 274° |
| 2026-05-03 21:22 | -22.32056 | -49.95055 | 21131 ft | 254 kts | 274° |
| 2026-05-03 21:22 | -22.31877 | -49.96955 | 21131 ft | 254 kts | 274° |
| 2026-05-03 21:23 | -22.31694 | -49.98852 | 21127 ft | 254 kts | 274° |
| 2026-05-03 21:23 | -22.31513 | -50.00752 | 21127 ft | 254 kts | 274° |
| 2026-05-03 21:23 | -22.31332 | -50.02649 | 21128 ft | 254 kts | 274° |
| 2026-05-03 21:23 | -22.31149 | -50.04549 | 21122 ft | 254 kts | 274° |
| 2026-05-03 21:24 | -22.30968 | -50.06444 | 21119 ft | 254 kts | 274° |
| 2026-05-03 21:24 | -22.30784 | -50.08342 | 21118 ft | 254 kts | 274° |
| 2026-05-03 21:24 | -22.30603 | -50.10237 | 21116 ft | 254 kts | 274° |
| 2026-05-03 21:24 | -22.30420 | -50.12134 | 21106 ft | 253 kts | 274° |
| 2026-05-03 21:25 | -22.30238 | -50.14025 | 21105 ft | 253 kts | 274° |
| 2026-05-03 21:25 | -22.30054 | -50.15916 | 21104 ft | 253 kts | 274° |
| 2026-05-03 21:25 | -22.29873 | -50.17811 | 21096 ft | 253 kts | 274° |
| 2026-05-03 21:25 | -22.29688 | -50.19703 | 21097 ft | 254 kts | 274° |
| 2026-05-03 21:26 | -22.29506 | -50.21596 | 21092 ft | 253 kts | 274° |
| 2026-05-03 21:26 | -22.29329 | -50.23363 | 22114 ft | 193 kts | 275° |
| 2026-05-03 21:26 | -22.29162 | -50.24888 | 22259 ft | 213 kts | 273° |
| 2026-05-03 21:26 | -22.29073 | -50.26483 | 22357 ft | 219 kts | 271° |
| 2026-05-03 21:27 | -22.28992 | -50.28187 | 22064 ft | 237 kts | 271° |
| 2026-05-03 21:27 | -22.28898 | -50.29901 | 22549 ft | 222 kts | 272° |
| 2026-05-03 21:27 | -22.28787 | -50.31620 | 22435 ft | 234 kts | 272° |
| 2026-05-03 21:27 | -22.28652 | -50.33401 | 22424 ft | 239 kts | 274° |
| 2026-05-03 21:28 | -22.28489 | -50.35159 | 22746 ft | 231 kts | 274° |
| 2026-05-03 21:28 | -22.28293 | -50.36914 | 22476 ft | 246 kts | 275° |
| 2026-05-03 21:28 | -22.28039 | -50.38799 | 22486 ft | 238 kts | 277° |
| 2026-05-03 21:28 | -22.27780 | -50.40589 | 22316 ft | 254 kts | 276° |
| 2026-05-03 21:29 | -22.27577 | -50.42503 | 22320 ft | 253 kts | 274° |
| 2026-05-03 21:29 | -22.27427 | -50.44353 | 22616 ft | 244 kts | 273° |
| 2026-05-03 21:29 | -22.27306 | -50.46195 | 22441 ft | 252 kts | 272° |
| 2026-05-03 21:29 | -22.27203 | -50.48142 | 22041 ft | 265 kts | 272° |
| 2026-05-03 21:30 | -22.27112 | -50.50109 | 22176 ft | 256 kts | 271° |
| 2026-05-03 21:30 | -22.27023 | -50.52015 | 22088 ft | 257 kts | 271° |
| 2026-05-03 21:30 | -22.26917 | -50.54028 | 21429 ft | 277 kts | 272° |
| 2026-05-03 21:30 | -22.26778 | -50.56114 | 21156 ft | 278 kts | 273° |
| 2026-05-03 21:31 | -22.26603 | -50.58157 | 21210 ft | 268 kts | 274° |
| 2026-05-03 21:31 | -22.26393 | -50.60126 | 21260 ft | 261 kts | 275° |
| 2026-05-03 21:31 | -22.26139 | -50.62074 | 21076 ft | 264 kts | 277° |
| 2026-05-03 21:31 | -22.25827 | -50.64059 | 20744 ft | 272 kts | 278° |
| 2026-05-03 21:32 | -22.25521 | -50.66084 | 20402 ft | 274 kts | 271° |
| 2026-05-03 21:32 | -22.25772 | -50.68134 | 20007 ft | 278 kts | 258° |
| 2026-05-03 21:32 | -22.26161 | -50.70192 | 19631 ft | 281 kts | 260° |
| 2026-05-03 21:32 | -22.26371 | -50.72295 | 19248 ft | 283 kts | 267° |
| 2026-05-03 21:33 | -22.26290 | -50.74422 | 18881 ft | 284 kts | 274° |
| 2026-05-03 21:33 | -22.26112 | -50.76528 | 18517 ft | 278 kts | 272° |
| 2026-05-03 21:33 | -22.26023 | -50.78583 | 18135 ft | 271 kts | 270° |
| 2026-05-03 21:33 | -22.25964 | -50.80596 | 17731 ft | 266 kts | 271° |
| 2026-05-03 21:34 | -22.25881 | -50.82573 | 17328 ft | 256 kts | 271° |
| 2026-05-03 21:34 | -22.25800 | -50.84426 | 16924 ft | 246 kts | 271° |
| 2026-05-03 21:34 | -22.25724 | -50.86277 | 16550 ft | 248 kts | 272° |
| 2026-05-03 21:34 | -22.25645 | -50.88140 | 16183 ft | 249 kts | 272° |
| 2026-05-03 21:35 | -22.25568 | -50.90013 | 15821 ft | 250 kts | 272° |
| 2026-05-03 21:35 | -22.25488 | -50.91891 | 15464 ft | 251 kts | 272° |
| 2026-05-03 21:35 | -22.25409 | -50.93776 | 15107 ft | 252 kts | 272° |
| 2026-05-03 21:35 | -22.25328 | -50.95663 | 14760 ft | 252 kts | 273° |
| 2026-05-03 21:36 | -22.25250 | -50.97554 | 14419 ft | 252 kts | 273° |
| 2026-05-03 21:36 | -22.25168 | -50.99444 | 14077 ft | 252 kts | 273° |
| 2026-05-03 21:36 | -22.25088 | -51.01337 | 13724 ft | 252 kts | 274° |
| 2026-05-03 21:36 | -22.25006 | -51.03232 | 13354 ft | 253 kts | 274° |
| 2026-05-03 21:37 | -22.24925 | -51.05122 | 12985 ft | 253 kts | 273° |
| 2026-05-03 21:37 | -22.24845 | -51.07021 | 12624 ft | 253 kts | 273° |
| 2026-05-03 21:37 | -22.24761 | -51.08914 | 12273 ft | 253 kts | 273° |
| 2026-05-03 21:37 | -22.24681 | -51.10810 | 11926 ft | 253 kts | 273° |
| 2026-05-03 21:38 | -22.24598 | -51.12697 | 11675 ft | 250 kts | 273° |
| 2026-05-03 21:38 | -22.24518 | -51.14561 | 11433 ft | 247 kts | 273° |
| 2026-05-03 21:38 | -22.24437 | -51.16403 | 11192 ft | 244 kts | 273° |
| 2026-05-03 21:38 | -22.24358 | -51.18225 | 10958 ft | 242 kts | 272° |
| 2026-05-03 21:39 | -22.24279 | -51.20038 | 10726 ft | 241 kts | 272° |
| 2026-05-03 21:39 | -22.24199 | -51.21840 | 10493 ft | 240 kts | 272° |
| 2026-05-03 21:39 | -22.24121 | -51.23636 | 10260 ft | 239 kts | 272° |
| 2026-05-03 21:39 | -22.24040 | -51.25426 | 10029 ft | 238 kts | 272° |
| 2026-05-03 21:40 | -22.23963 | -51.27202 | 9784 ft | 237 kts | 272° |
| 2026-05-03 21:40 | -22.23884 | -51.28969 | 9544 ft | 235 kts | 272° |
| 2026-05-03 21:40 | -22.23807 | -51.30727 | 9314 ft | 234 kts | 272° |
| 2026-05-03 21:40 | -22.23727 | -51.32482 | 9087 ft | 234 kts | 273° |
| 2026-05-03 21:41 | -22.23650 | -51.34229 | 8859 ft | 233 kts | 273° |
| 2026-05-03 21:41 | -22.23572 | -51.35977 | 8630 ft | 233 kts | 273° |
| 2026-05-03 21:41 | -22.23494 | -51.37723 | 8405 ft | 233 kts | 273° |
| 2026-05-03 21:41 | -22.23415 | -51.39472 | 8176 ft | 233 kts | 274° |
| 2026-05-03 21:42 | -22.23336 | -51.41224 | 7948 ft | 234 kts | 274° |
| 2026-05-03 21:42 | -22.23257 | -51.42957 | 7722 ft | 234 kts | 274° |
| 2026-05-03 21:42 | -22.23177 | -51.44713 | 7492 ft | 235 kts | 274° |
| 2026-05-03 21:42 | -22.23098 | -51.46472 | 7261 ft | 235 kts | 274° |
| 2026-05-03 21:43 | -22.23017 | -51.48233 | 7032 ft | 235 kts | 274° |
| 2026-05-03 21:43 | -22.22937 | -51.49995 | 6803 ft | 235 kts | 274° |
| 2026-05-03 21:43 | -22.22857 | -51.51758 | 6572 ft | 235 kts | 274° |
| 2026-05-03 21:43 | -22.22775 | -51.53525 | 6328 ft | 235 kts | 274° |
| 2026-05-03 21:44 | -22.22695 | -51.55285 | 6089 ft | 235 kts | 274° |
| 2026-05-03 21:44 | -22.22614 | -51.57047 | 5856 ft | 235 kts | 274° |
| 2026-05-03 21:44 | -22.22531 | -51.58809 | 5618 ft | 235 kts | 274° |
| 2026-05-03 21:44 | -22.22282 | -51.60518 | 5388 ft | 227 kts | 293° |
| 2026-05-03 21:45 | -22.21408 | -51.61855 | 5169 ft | 206 kts | 318° |
| 2026-05-03 21:45 | -22.20310 | -51.62635 | 4980 ft | 174 kts | 340° |
| 2026-05-03 21:45 | -22.19203 | -51.62937 | 4835 ft | 159 kts | 358° |
| 2026-05-03 21:45 | -22.18163 | -51.62876 | 4686 ft | 141 kts | 14° |
| 2026-05-03 21:46 | -22.17283 | -51.62559 | 4568 ft | 128 kts | 29° |
| 2026-05-03 21:46 | -22.16531 | -51.62098 | 4450 ft | 124 kts | 32° |
| 2026-05-03 21:46 | -22.15762 | -51.61663 | 4330 ft | 125 kts | 34° |
| 2026-05-03 21:46 | -22.15230 | -51.60969 | 4212 ft | 119 kts | 68° |
| 2026-05-03 21:47 | -22.15036 | -51.60105 | 4096 ft | 121 kts | 89° |
| 2026-05-03 21:47 | -22.15182 | -51.59191 | 3978 ft | 126 kts | 100° |
| 2026-05-03 21:47 | -22.15289 | -51.58237 | 3855 ft | 130 kts | 96° |
| 2026-05-03 21:47 | -22.15430 | -51.57260 | 3721 ft | 133 kts | 99° |
| 2026-05-03 21:48 | -22.15567 | -51.56288 | 3586 ft | 133 kts | 98° |
| 2026-05-03 21:48 | -22.15710 | -51.55301 | 3460 ft | 134 kts | 98° |
| 2026-05-03 21:48 | -22.15845 | -51.54316 | 3366 ft | 132 kts | 98° |
| 2026-05-03 21:48 | -22.15985 | -51.53332 | 3211 ft | 133 kts | 98° |
| 2026-05-03 21:49 | -22.16122 | -51.52337 | 3043 ft | 135 kts | 98° |
| 2026-05-03 21:49 | -22.16261 | -51.51357 | 2871 ft | 127 kts | 98° |
| 2026-05-03 21:49 | -22.16389 | -51.50443 | 2711 ft | 120 kts | 99° |
| 2026-05-03 21:49 | -22.16512 | -51.49574 | 2557 ft | 115 kts | 98° |
| 2026-05-03 21:50 | -22.16627 | -51.48732 | 2407 ft | 111 kts | 98° |
| 2026-05-03 21:50 | -22.16745 | -51.47912 | 2265 ft | 110 kts | 99° |
| 2026-05-03 21:50 | -22.16822 | -51.47354 | 2163 ft | 113 kts | 99° |
| 2026-05-03 21:50 | -22.16940 | -51.46513 | 2014 ft | 116 kts | 99° |
| 2026-05-03 21:51 | -22.17061 | -51.45645 | 1856 ft | 117 kts | 99° |
| 2026-05-03 21:51 | -22.17173 | -51.44772 | 1727 ft | 116 kts | 101° |
| 2026-05-03 21:51 | -22.17297 | -51.43936 | 1561 ft | 113 kts | 99° |
| 2026-05-03 21:51 | -22.17409 | -51.43127 | 1438 ft | 99 kts | 98° |
| 2026-05-03 21:52 | -22.17486 | -51.42591 | 1458 ft | 37 kts | 98° |
| 2026-05-03 21:52 | -22.17517 | -51.42381 | 1466 ft | 18 kts | 100° |
| 2026-05-03 21:52 | -22.17535 | -51.42276 | 1470 ft | 11 kts | 123° |
| 2026-05-03 21:52 | -22.17584 | -51.42221 | 1471 ft | 10 kts | 136° |
| 2026-05-03 21:53 | -22.17597 | -51.42208 | 1472 ft | 0 kts | 137° |
| 2026-05-03 21:54 | -22.17604 | -51.42202 | 1464 ft | 4 kts | 145° |
| 2026-05-03 21:54 | -22.17641 | -51.42168 | 1473 ft | 6 kts | 138° |
| 2026-05-03 21:54 | -22.17668 | -51.42141 | 1474 ft | 9 kts | 140° |
| 2026-05-03 21:54 | -22.17707 | -51.42091 | 1476 ft | 10 kts | 116° |
| 2026-05-03 21:55 | -22.17720 | -51.42021 | 1478 ft | 5 kts | 102° |
| 2026-05-03 21:55 | -22.17738 | -51.41986 | 1479 ft | 5 kts | 167° |
| 2026-05-03 21:55 | -22.17774 | -51.41989 | 1479 ft | 0 kts | 187° |
| 2026-05-03 21:55 | -22.17777 | -51.41990 | 1479 ft | 0 kts | 186° |